Time;durP1;ratioP1;P1;durP2;ratioP2;P2;SDS_P1;SDS_P2;PMS_P1;PMS_P2;Temp;Humidity;BMP_temperature;BMP_pressure;BME280_temperature;BME280_humidity;BME280_pressure;Samples;Min_cycle;Max_cycle;Signal;HPM_P1;HPM_P2
2022/10/10 00:00:32;;;;;;;5.50;5.30;;;;;;;;;;4999718;28;20696;-70
2022/10/10 00:02:57;;;;;;;5.20;5.00;;;;;;;;;;4999744;28;20128;-72
2022/10/10 00:05:23;;;;;;;5.20;5.00;;;;;;;;;;5000873;28;20044;-71
2022/10/10 00:07:48;;;;;;;6.18;5.88;;;;;;;;;;4999603;28;20034;-71
2022/10/10 00:10:14;;;;;;;5.40;5.20;;;;;;;;;;4996478;28;20041;-71
2022/10/10 00:12:40;;;;;;;5.47;5.28;;;;;;;;;;5001949;28;20061;-71
2022/10/10 00:15:06;;;;;;;5.40;5.20;;;;;;;;;;4996459;28;20040;-71
2022/10/10 00:17:32;;;;;;;5.35;5.15;;;;;;;;;;5002899;28;20555;-71
2022/10/10 00:19:57;;;;;;;5.35;5.15;;;;;;;;;;4994339;28;20034;-71
2022/10/10 00:22:23;;;;;;;5.60;5.40;;;;;;;;;;4997287;28;20418;-71
2022/10/10 00:24:48;;;;;;;5.40;5.20;;;;;;;;;;4997639;28;20525;-70
2022/10/10 00:27:14;;;;;;;5.40;5.20;;;;;;;;;;5000088;28;20041;-71
2022/10/10 00:29:40;;;;;;;5.50;5.30;;;;;;;;;;5021587;28;20546;-71
2022/10/10 00:32:05;;;;;;;5.47;5.28;;;;;;;;;;4996347;28;20113;-71
2022/10/10 00:34:31;;;;;;;5.15;4.95;;;;;;;;;;4995836;28;20125;-70
2022/10/10 00:36:57;;;;;;;5.00;4.80;;;;;;;;;;4999898;28;20042;-71
2022/10/10 00:39:22;;;;;;;5.22;5.03;;;;;;;;;;5001865;28;20037;-71
2022/10/10 00:41:48;;;;;;;5.05;4.85;;;;;;;;;;4997452;28;20065;-71
2022/10/10 00:44:14;;;;;;;5.15;4.95;;;;;;;;;;4999504;28;20656;-71
2022/10/10 00:46:40;;;;;;;5.18;4.97;;;;;;;;;;4998269;28;20661;-71
2022/10/10 00:49:14;;;;;;;5.22;5.03;;;;;;;;;;4997507;28;20061;-71
2022/10/10 00:51:41;;;;;;;5.20;5.00;;;;;;;;;;4998582;28;20042;-70
2022/10/10 00:54:09;;;;;;;5.10;4.90;;;;;;;;;;5002224;28;20395;-70
2022/10/10 00:56:48;;;;;;;5.57;5.28;;;;;;;;;;4997323;28;20034;-71
2022/10/10 00:59:15;;;;;;;5.03;4.82;;;;;;;;;;5000443;28;20042;-70
2022/10/10 01:01:41;;;;;;;5.20;5.00;;;;;;;;;;4999448;28;20653;-72
2022/10/10 01:04:33;;;;;;;5.15;4.95;;;;;;;;;;4998119;28;20068;-70
2022/10/10 01:07:00;;;;;;;5.20;5.00;;;;;;;;;;4995074;28;20537;-71
2022/10/10 01:09:27;;;;;;;5.05;4.85;;;;;;;;;;4996083;28;20425;-71
2022/10/10 01:12:10;;;;;;;5.03;4.82;;;;;;;;;;4991725;28;21804;-71
2022/10/10 01:15:06;;;;;;;5.28;5.07;;;;;;;;;;4996753;28;20030;-72
2022/10/10 01:17:43;;;;;;;5.13;4.93;;;;;;;;;;5001633;28;20655;-70
2022/10/10 01:20:43;;;;;;;5.30;5.10;;;;;;;;;;4995126;28;20516;-71
2022/10/10 01:23:14;;;;;;;5.00;4.80;;;;;;;;;;5000893;28;20026;-71
2022/10/10 01:26:02;;;;;;;5.30;5.10;;;;;;;;;;4991829;28;20034;-72
2022/10/10 01:28:51;;;;;;;4.95;4.75;;;;;;;;;;4996006;28;20105;-71
2022/10/10 01:31:21;;;;;;;5.10;4.90;;;;;;;;;;4999352;28;20038;-72
2022/10/10 01:33:58;;;;;;;5.10;4.90;;;;;;;;;;5001105;28;20081;-71
2022/10/10 01:37:02;;;;;;;5.03;4.82;;;;;;;;;;5015338;28;20034;-71
2022/10/10 01:39:41;;;;;;;5.80;5.50;;;;;;;;;;4995477;28;20034;-72
2022/10/10 01:42:18;;;;;;;5.13;4.93;;;;;;;;;;4996067;28;20475;-71
2022/10/10 01:44:45;;;;;;;4.97;4.78;;;;;;;;;;4997730;28;20041;-71
2022/10/10 01:47:12;;;;;;;4.95;4.75;;;;;;;;;;4999319;28;20037;-72
2022/10/10 01:49:40;;;;;;;5.20;5.00;;;;;;;;;;4999681;28;20034;-71
2022/10/10 01:52:26;;;;;;;5.20;5.00;;;;;;;;;;5000698;28;20391;-71
2022/10/10 01:55:19;;;;;;;5.20;5.00;;;;;;;;;;4997564;28;20076;-71
2022/10/10 01:57:54;;;;;;;5.20;5.00;;;;;;;;;;4997184;28;20029;-71
2022/10/10 02:00:19;;;;;;;5.35;5.15;;;;;;;;;;4999042;28;20053;-72
2022/10/10 02:02:57;;;;;;;5.10;4.90;;;;;;;;;;4995276;28;20622;-72
2022/10/10 02:05:44;;;;;;;5.10;4.90;;;;;;;;;;5001184;28;20046;-71
2022/10/10 02:08:14;;;;;;;5.18;4.97;;;;;;;;;;4996327;28;20034;-71
2022/10/10 02:10:47;;;;;;;5.53;5.32;;;;;;;;;;4997367;28;20037;-71
2022/10/10 02:13:15;;;;;;;5.50;5.30;;;;;;;;;;4994492;28;20117;-71
2022/10/10 02:15:45;;;;;;;5.20;5.00;;;;;;;;;;4995946;28;20034;-71
2022/10/10 02:18:14;;;;;;;7.15;6.75;;;;;;;;;;4998837;28;20498;-71
2022/10/10 02:20:41;;;;;;;;;;;;;;;;;;4997492;28;20041;-71
2022/10/10 02:23:11;;;;;;;5.45;5.25;;;;;;;;;;5001073;28;19987;-72
2022/10/10 02:25:39;;;;;;;5.07;4.88;;;;;;;;;;4998003;28;20030;-71
2022/10/10 02:28:07;;;;;;;4.90;4.70;;;;;;;;;;4992979;28;20105;-71
2022/10/10 02:30:37;;;;;;;5.30;5.10;;;;;;;;;;4994996;28;20125;-71
2022/10/10 02:33:05;;;;;;;5.22;5.03;;;;;;;;;;4995889;28;20675;-72
2022/10/10 02:35:35;;;;;;;5.30;5.10;;;;;;;;;;4993904;28;20709;-71
2022/10/10 02:38:04;;;;;;;5.20;5.00;;;;;;;;;;4999007;28;20038;-72
2022/10/10 02:40:31;;;;;;;5.20;5.00;;;;;;;;;;4995732;28;20057;-71
2022/10/10 02:42:59;;;;;;;5.18;4.97;;;;;;;;;;4991903;28;20168;-71
2022/10/10 02:45:27;;;;;;;5.35;5.15;;;;;;;;;;4997990;28;20158;-72
2022/10/10 02:47:53;;;;;;;5.10;4.90;;;;;;;;;;4997463;28;20814;-72
2022/10/10 02:50:20;;;;;;;5.47;5.28;;;;;;;;;;5001097;28;20042;-72
2022/10/10 02:52:46;;;;;;;5.28;5.07;;;;;;;;;;4996603;28;20091;-71
2022/10/10 02:55:12;;;;;;;5.32;5.13;;;;;;;;;;4996978;28;20057;-72
2022/10/10 02:57:37;;;;;;;5.60;5.40;;;;;;;;;;5000581;28;20037;-72
2022/10/10 03:00:04;;;;;;;5.68;5.45;;;;;;;;;;4996502;28;20045;-70
2022/10/10 03:02:30;;;;;;;5.35;5.15;;;;;;;;;;4998103;28;20073;-71
2022/10/10 03:04:57;;;;;;;5.40;5.20;;;;;;;;;;5000549;28;20390;-71
2022/10/10 03:07:23;;;;;;;5.43;5.22;;;;;;;;;;4998806;28;20044;-72
2022/10/10 03:09:49;;;;;;;5.30;5.10;;;;;;;;;;4998993;28;20034;-70
2022/10/10 03:12:15;;;;;;;5.90;5.60;;;;;;;;;;4995576;28;20417;-71
2022/10/10 03:14:41;;;;;;;5.45;5.25;;;;;;;;;;4993123;28;20035;-71
2022/10/10 03:17:06;;;;;;;5.50;5.30;;;;;;;;;;4992713;28;20038;-71
2022/10/10 03:19:32;;;;;;;5.25;5.05;;;;;;;;;;4996733;28;20103;-72
2022/10/10 03:21:57;;;;;;;5.45;5.25;;;;;;;;;;4994492;28;20034;-70
2022/10/10 03:24:23;;;;;;;5.40;5.20;;;;;;;;;;4997782;28;20041;-71
2022/10/10 03:26:48;;;;;;;5.22;5.03;;;;;;;;;;4999230;28;20049;-72
2022/10/10 03:29:14;;;;;;;5.30;5.10;;;;;;;;;;5002930;28;20866;-72
2022/10/10 03:31:40;;;;;;;5.10;4.90;;;;;;;;;;5005130;28;20030;-71
2022/10/10 03:34:05;;;;;;;5.10;4.90;;;;;;;;;;5001894;28;20030;-72
2022/10/10 03:36:31;;;;;;;5.32;5.13;;;;;;;;;;5004267;28;20065;-72
2022/10/10 03:38:56;;;;;;;5.20;5.00;;;;;;;;;;5001627;28;20041;-71
2022/10/10 03:41:22;;;;;;;5.30;5.10;;;;;;;;;;5005151;28;20033;-71
2022/10/10 03:43:47;;;;;;;5.47;5.28;;;;;;;;;;5000225;28;20037;-72
2022/10/10 03:46:13;;;;;;;5.20;5.00;;;;;;;;;;5005490;28;20041;-71
2022/10/10 03:48:39;;;;;;;5.20;5.00;;;;;;;;;;4999398;28;20030;-71
2022/10/10 03:51:05;;;;;;;4.97;4.78;;;;;;;;;;5004540;28;20047;-70
2022/10/10 03:53:30;;;;;;;4.93;4.72;;;;;;;;;;4995587;28;20033;-71
2022/10/10 03:55:56;;;;;;;5.10;4.90;;;;;;;;;;4999817;28;20030;-71
2022/10/10 03:58:22;;;;;;;5.25;5.05;;;;;;;;;;4998525;28;20026;-71
2022/10/10 04:00:55;;;;;;;4.90;4.70;;;;;;;;;;5004472;28;20060;-71
2022/10/10 04:03:22;;;;;;;5.15;4.95;;;;;;;;;;5000669;28;20038;-71
2022/10/10 04:05:47;;;;;;;5.50;5.30;;;;;;;;;;5004565;28;20030;-71
2022/10/10 04:08:13;;;;;;;5.30;5.10;;;;;;;;;;4999563;28;20045;-71
2022/10/10 04:10:38;;;;;;;5.43;5.22;;;;;;;;;;5001558;28;20026;-71
2022/10/10 04:13:04;;;;;;;5.13;4.93;;;;;;;;;;4993516;28;20038;-70
2022/10/10 04:15:31;;;;;;;5.40;5.20;;;;;;;;;;4996757;28;20041;-71
2022/10/10 04:17:57;;;;;;;5.40;5.20;;;;;;;;;;5003047;28;20104;-71
2022/10/10 04:20:23;;;;;;;6.32;5.93;;;;;;;;;;5004452;28;20048;-71
2022/10/10 04:22:49;;;;;;;5.50;5.30;;;;;;;;;;5000781;28;20038;-71
2022/10/10 04:25:15;;;;;;;5.55;5.35;;;;;;;;;;4996595;28;20133;-71
2022/10/10 04:27:42;;;;;;;5.43;5.22;;;;;;;;;;4999394;28;20076;-70
2022/10/10 04:30:08;;;;;;;6.18;5.88;;;;;;;;;;5001815;28;21698;-71
2022/10/10 04:32:34;;;;;;;5.50;5.30;;;;;;;;;;4998638;28;20554;-71
2022/10/10 04:35:00;;;;;;;5.50;5.30;;;;;;;;;;5000542;28;20121;-71
2022/10/10 04:37:25;;;;;;;5.10;4.90;;;;;;;;;;4997305;28;20073;-70
2022/10/10 04:39:51;;;;;;;5.30;5.10;;;;;;;;;;4998986;28;20033;-71
2022/10/10 04:42:17;;;;;;;5.50;5.30;;;;;;;;;;4998097;28;20033;-71
2022/10/10 04:44:42;;;;;;;5.40;5.20;;;;;;;;;;4999069;28;20077;-71
2022/10/10 04:47:08;;;;;;;5.78;5.47;;;;;;;;;;5000621;28;20129;-71
2022/10/10 04:49:34;;;;;;;5.90;5.60;;;;;;;;;;4999797;28;20464;-70
2022/10/10 04:51:59;;;;;;;5.50;5.30;;;;;;;;;;4997294;28;20125;-70
2022/10/10 04:54:25;;;;;;;5.50;5.30;;;;;;;;;;4998058;28;20826;-71
2022/10/10 04:56:50;;;;;;;5.22;5.03;;;;;;;;;;4999150;28;20375;-70
2022/10/10 04:59:16;;;;;;;5.53;5.32;;;;;;;;;;5000315;28;20040;-70
2022/10/10 05:01:42;;;;;;;5.50;5.30;;;;;;;;;;5002858;28;20035;-71
2022/10/10 05:04:07;;;;;;;5.40;5.20;;;;;;;;;;4998236;28;20037;-71
2022/10/10 05:06:33;;;;;;;5.40;5.20;;;;;;;;;;4999422;28;20433;-71
2022/10/10 05:08:58;;;;;;;6.18;5.88;;;;;;;;;;4994185;28;20038;-71
2022/10/10 05:11:24;;;;;;;5.60;5.40;;;;;;;;;;4998602;28;20583;-71
2022/10/10 05:13:49;;;;;;;5.30;5.10;;;;;;;;;;5002404;28;20058;-70
2022/10/10 05:16:16;;;;;;;5.40;5.20;;;;;;;;;;4996914;28;20064;-70
2022/10/10 05:18:42;;;;;;;5.43;5.22;;;;;;;;;;4993462;28;20080;-71
2022/10/10 05:21:10;;;;;;;6.07;5.78;;;;;;;;;;4994495;28;20368;-71
2022/10/10 05:23:37;;;;;;;5.55;5.32;;;;;;;;;;4995284;28;20378;-71
2022/10/10 05:26:03;;;;;;;5.97;5.68;;;;;;;;;;4999133;28;20568;-69
2022/10/10 05:28:30;;;;;;;5.80;5.50;;;;;;;;;;4998440;28;20499;-70
2022/10/10 05:30:56;;;;;;;5.97;5.68;;;;;;;;;;4999449;28;20030;-70
2022/10/10 05:33:22;;;;;;;5.47;5.28;;;;;;;;;;5001772;28;20556;-70
2022/10/10 05:35:48;;;;;;;5.57;5.38;;;;;;;;;;4997398;28;20421;-71
2022/10/10 05:38:13;;;;;;;6.00;5.70;;;;;;;;;;4997855;28;20104;-69
2022/10/10 05:40:40;;;;;;;5.78;5.47;;;;;;;;;;5001898;28;20061;-70
2022/10/10 05:43:05;;;;;;;5.90;5.60;;;;;;;;;;4994860;28;20061;-68
2022/10/10 05:45:31;;;;;;;5.75;5.47;;;;;;;;;;4995235;28;20030;-69
2022/10/10 05:47:56;;;;;;;6.18;5.88;;;;;;;;;;4994474;28;20100;-71
2022/10/10 05:50:39;;;;;;;6.10;5.80;;;;;;;;;;4997394;28;20065;-69
2022/10/10 05:53:05;;;;;;;5.38;5.18;;;;;;;;;;4996464;28;20042;-71
2022/10/10 05:55:31;;;;;;;6.30;6.00;;;;;;;;;;4996658;28;20576;-71
2022/10/10 05:57:57;;;;;;;5.68;5.40;;;;;;;;;;4995078;28;20490;-71
2022/10/10 06:00:24;;;;;;;6.40;6.10;;;;;;;;;;4995372;28;20085;-70
2022/10/10 06:02:50;;;;;;;5.90;5.60;;;;;;;;;;4997405;28;20026;-70
2022/10/10 06:05:16;;;;;;;6.30;6.00;;;;;;;;;;5000607;28;20077;-71
2022/10/10 06:07:41;;;;;;;6.25;5.95;;;;;;;;;;4993856;28;20394;-71
2022/10/10 06:10:08;;;;;;;6.30;6.00;;;;;;;;;;4996965;28;20617;-71
2022/10/10 06:12:33;;;;;;;5.13;4.93;;;;;;;;;;4995729;28;20062;-71
2022/10/10 06:14:59;;;;;;;5.60;5.38;;;;;;;;;;4996866;28;20041;-72
2022/10/10 06:17:25;;;;;;;5.60;5.40;;;;;;;;;;4995743;28;20177;-71
2022/10/10 06:19:51;;;;;;;5.82;5.53;;;;;;;;;;5000432;28;20427;-71
2022/10/10 06:22:16;;;;;;;5.35;5.15;;;;;;;;;;5006573;28;20146;-72
2022/10/10 06:24:42;;;;;;;5.40;5.20;;;;;;;;;;5008103;28;20041;-70
2022/10/10 06:27:07;;;;;;;5.38;5.18;;;;;;;;;;5001036;28;20042;-72
2022/10/10 06:29:33;;;;;;;6.43;6.03;;;;;;;;;;4998322;28;20030;-71
2022/10/10 06:31:58;;;;;;;5.10;4.90;;;;;;;;;;5001533;28;20068;-71
2022/10/10 06:34:24;;;;;;;5.10;4.90;;;;;;;;;;4994575;28;20037;-71
2022/10/10 06:36:50;;;;;;;5.10;4.90;;;;;;;;;;4995521;28;20034;-71
2022/10/10 06:39:17;;;;;;;5.28;5.07;;;;;;;;;;5015517;28;20042;-70
2022/10/10 06:41:42;;;;;;;5.07;4.88;;;;;;;;;;4993770;28;20029;-71
2022/10/10 06:44:10;;;;;;;5.30;5.10;;;;;;;;;;5019283;28;20421;-71
2022/10/10 06:46:36;;;;;;;5.40;5.20;;;;;;;;;;4993176;28;20038;-70
2022/10/10 06:49:03;;;;;;;5.45;5.25;;;;;;;;;;4997992;28;20033;-71
2022/10/10 06:51:29;;;;;;;5.40;5.20;;;;;;;;;;4999291;28;20475;-71
2022/10/10 06:53:56;;;;;;;6.07;5.78;;;;;;;;;;4995584;28;20069;-71
2022/10/10 06:56:22;;;;;;;5.90;5.60;;;;;;;;;;4993174;28;20034;-71
2022/10/10 06:58:48;;;;;;;5.00;4.80;;;;;;;;;;5003865;28;20038;-72
2022/10/10 07:01:18;;;;;;;5.60;5.40;;;;;;;;;;5002801;28;20046;-71
2022/10/10 07:03:44;;;;;;;5.65;5.43;;;;;;;;;;4996659;28;20030;-71
2022/10/10 07:06:10;;;;;;;5.50;5.30;;;;;;;;;;5002871;28;20057;-71
2022/10/10 07:08:37;;;;;;;6.15;5.85;;;;;;;;;;5012065;28;20394;-71
2022/10/10 07:11:03;;;;;;;5.90;5.60;;;;;;;;;;5009819;28;20429;-71
2022/10/10 07:13:29;;;;;;;5.45;5.25;;;;;;;;;;5001237;28;20030;-70
2022/10/10 07:15:55;;;;;;;5.70;5.45;;;;;;;;;;4999945;28;20060;-71
2022/10/10 07:18:21;;;;;;;5.25;5.05;;;;;;;;;;4999173;28;20506;-71
2022/10/10 07:20:47;;;;;;;6.55;6.15;;;;;;;;;;4995375;28;20436;-71
2022/10/10 07:23:13;;;;;;;5.75;5.47;;;;;;;;;;4996502;28;20117;-71
2022/10/10 07:25:40;;;;;;;5.22;5.03;;;;;;;;;;5001540;28;20041;-70
2022/10/10 07:28:07;;;;;;;5.40;5.20;;;;;;;;;;5006711;28;20080;-71
2022/10/10 07:30:37;;;;;;;4.90;4.70;;;;;;;;;;5001311;28;20144;-71
2022/10/10 07:33:03;;;;;;;5.43;5.22;;;;;;;;;;4990227;28;20052;-71
2022/10/10 07:35:28;;;;;;;5.00;4.80;;;;;;;;;;4998907;28;20041;-71
2022/10/10 07:37:54;;;;;;;5.40;5.20;;;;;;;;;;5000442;28;20077;-71
2022/10/10 07:40:21;;;;;;;5.22;5.03;;;;;;;;;;5001848;28;20748;-71
2022/10/10 07:42:47;;;;;;;5.70;5.47;;;;;;;;;;5004047;28;20036;-71
2022/10/10 07:45:12;;;;;;;5.30;5.10;;;;;;;;;;5002243;28;20037;-71
2022/10/10 07:47:39;;;;;;;5.60;5.40;;;;;;;;;;4998148;28;20033;-71
2022/10/10 07:50:06;;;;;;;6.13;5.82;;;;;;;;;;5000403;28;20034;-70
2022/10/10 07:52:33;;;;;;;5.20;5.00;;;;;;;;;;5002141;28;20049;-70
2022/10/10 07:54:59;;;;;;;5.50;5.30;;;;;;;;;;5003608;28;20029;-70
2022/10/10 07:57:25;;;;;;;5.45;5.25;;;;;;;;;;4999894;28;20124;-70
2022/10/10 07:59:51;;;;;;;5.45;5.25;;;;;;;;;;5002063;28;20038;-71
2022/10/10 08:02:16;;;;;;;5.63;5.40;;;;;;;;;;4999085;28;20122;-71
2022/10/10 08:04:42;;;;;;;5.85;5.55;;;;;;;;;;5004744;28;20168;-70
2022/10/10 08:07:08;;;;;;;6.20;5.90;;;;;;;;;;4998295;28;20057;-71
2022/10/10 08:09:34;;;;;;;5.40;5.20;;;;;;;;;;5001711;28;20449;-70
2022/10/10 08:11:59;;;;;;;5.40;5.20;;;;;;;;;;4999192;28;20029;-70
2022/10/10 08:14:25;;;;;;;5.40;5.20;;;;;;;;;;5002416;28;20494;-70
2022/10/10 08:16:51;;;;;;;5.28;5.07;;;;;;;;;;5001321;28;20038;-70
2022/10/10 08:19:16;;;;;;;5.47;5.28;;;;;;;;;;5000073;28;20226;-71
2022/10/10 08:21:42;;;;;;;5.05;4.85;;;;;;;;;;5000570;28;20068;-70
2022/10/10 08:24:08;;;;;;;5.30;5.10;;;;;;;;;;4997905;28;20045;-70
2022/10/10 08:26:33;;;;;;;5.38;5.18;;;;;;;;;;4998137;28;20034;-71
2022/10/10 08:28:59;;;;;;;5.60;5.35;;;;;;;;;;5001416;28;20443;-70
2022/10/10 08:31:24;;;;;;;5.15;4.95;;;;;;;;;;5000046;28;20152;-71
2022/10/10 08:33:51;;;;;;;5.57;5.38;;;;;;;;;;5001858;28;20064;-71
2022/10/10 08:36:22;;;;;;;5.30;5.10;;;;;;;;;;5003003;28;20482;-71
2022/10/10 08:38:47;;;;;;;5.50;5.30;;;;;;;;;;4998252;28;20041;-70
2022/10/10 08:41:38;;;;;;;5.45;5.25;;;;;;;;;;4999601;28;20038;-71
2022/10/10 08:44:12;;;;;;;5.55;5.35;;;;;;;;;;4989371;28;20064;-70
2022/10/10 08:47:01;;;;;;;5.25;5.05;;;;;;;;;;4996969;28;20037;-71
2022/10/10 08:49:48;;;;;;;5.50;5.30;;;;;;;;;;5001273;28;20046;-70
2022/10/10 08:52:38;;;;;;;6.30;6.00;;;;;;;;;;4996122;28;20057;-70
2022/10/10 08:55:18;;;;;;;5.85;5.55;;;;;;;;;;4997866;28;20050;-71
2022/10/10 08:57:58;;;;;;;5.50;5.30;;;;;;;;;;4999204;28;20442;-70
2022/10/10 09:00:55;;;;;;;5.30;5.10;;;;;;;;;;4942923;28;20098;-70
2022/10/10 09:03:46;;;;;;;5.25;5.05;;;;;;;;;;4947121;28;20034;-70
2022/10/10 09:06:18;;;;;;;5.63;5.43;;;;;;;;;;4947835;28;20141;-70
2022/10/10 09:09:07;;;;;;;5.97;5.68;;;;;;;;;;4945576;28;20043;-70
2022/10/10 09:12:09;;;;;;;5.57;5.38;;;;;;;;;;4949886;28;20035;-70
2022/10/10 09:14:38;;;;;;;5.55;5.35;;;;;;;;;;4947225;28;20046;-70
2022/10/10 09:17:38;;;;;;;6.40;6.10;;;;;;;;;;4948169;28;20039;-70
2022/10/10 09:20:15;;;;;;;5.80;5.50;;;;;;;;;;4951374;28;20050;-70
2022/10/10 09:23:22;;;;;;;5.85;5.55;;;;;;;;;;4949001;28;20122;-71
2022/10/10 09:25:57;;;;;;;6.00;5.70;;;;;;;;;;4936182;28;20074;-71
2022/10/10 09:28:39;;;;;;;5.88;5.57;;;;;;;;;;4948100;28;20118;-71
2022/10/10 09:31:17;;;;;;;5.60;5.40;;;;;;;;;;4962480;28;20219;-70
2022/10/10 09:33:48;;;;;;;5.65;5.38;;;;;;;;;;4996709;28;20038;-71
2022/10/10 09:36:19;;;;;;;5.90;5.60;;;;;;;;;;4995091;28;20045;-71
2022/10/10 09:38:52;;;;;;;5.97;5.68;;;;;;;;;;4999653;28;20030;-71
2022/10/10 09:41:28;;;;;;;5.82;5.53;;;;;;;;;;4994896;28;20038;-71
2022/10/10 09:43:56;;;;;;;5.75;5.45;;;;;;;;;;4995493;28;20034;-70
2022/10/10 09:46:22;;;;;;;5.55;5.35;;;;;;;;;;4997599;28;20039;-70
2022/10/10 09:48:48;;;;;;;5.70;5.45;;;;;;;;;;5000662;28;20080;-70
2022/10/10 09:51:16;;;;;;;5.90;5.60;;;;;;;;;;4998557;28;20506;-71
2022/10/10 09:53:42;;;;;;;6.07;5.78;;;;;;;;;;4998032;28;20034;-70
2022/10/10 09:56:19;;;;;;;5.47;5.28;;;;;;;;;;4996688;28;20070;-71
2022/10/10 09:58:47;;;;;;;6.05;5.75;;;;;;;;;;4996806;28;20277;-71
2022/10/10 10:01:20;;;;;;;5.53;5.32;;;;;;;;;;4996860;28;20069;-71
2022/10/10 10:04:14;;;;;;;5.90;5.60;;;;;;;;;;4998326;28;20026;-71
2022/10/10 10:06:49;;;;;;;6.00;5.70;;;;;;;;;;4999530;28;20509;-71
2022/10/10 10:09:20;;;;;;;6.03;5.72;;;;;;;;;;5000326;28;20117;-71
2022/10/10 10:11:52;;;;;;;6.38;6.07;;;;;;;;;;4993840;28;20229;-71
2022/10/10 10:14:27;;;;;;;6.07;5.78;;;;;;;;;;4997399;28;20043;-71
2022/10/10 10:16:55;;;;;;;5.20;5.00;;;;;;;;;;4994987;28;20034;-71
2022/10/10 10:19:36;;;;;;;5.32;5.13;;;;;;;;;;4992116;28;20026;-71
2022/10/10 10:22:03;;;;;;;6.28;5.93;;;;;;;;;;4996923;28;20173;-71
2022/10/10 10:24:34;;;;;;;5.68;5.40;;;;;;;;;;4996719;28;20699;-71
2022/10/10 10:27:29;;;;;;;4.40;4.20;;;;;;;;;;4996632;28;20034;-71
2022/10/10 10:29:57;;;;;;;4.63;4.43;;;;;;;;;;4960216;28;20065;-71
2022/10/10 10:32:50;;;;;;;6.35;6.05;;;;;;;;;;4959251;28;20081;-71
2022/10/10 10:35:26;;;;;;;5.53;5.32;;;;;;;;;;4955163;28;20150;-71
2022/10/10 10:37:57;;;;;;;5.97;5.68;;;;;;;;;;4961014;28;20046;-71
2022/10/10 10:40:31;;;;;;;5.88;5.57;;;;;;;;;;4959856;28;20047;-71
2022/10/10 10:43:21;;;;;;;6.20;5.90;;;;;;;;;;4965459;28;20680;-71
2022/10/10 10:46:10;;;;;;;5.93;5.63;;;;;;;;;;4959447;28;20042;-71
2022/10/10 10:48:39;;;;;;;6.70;6.40;;;;;;;;;;4956602;28;20140;-72
2022/10/10 10:51:17;;;;;;;6.07;5.78;;;;;;;;;;4959056;28;20696;-73
2022/10/10 10:54:14;;;;;;;5.80;5.50;;;;;;;;;;4964081;28;20517;-71
2022/10/10 10:56:44;;;;;;;5.90;5.60;;;;;;;;;;4942727;28;20046;-73
2022/10/10 10:59:34;;;;;;;4.80;4.60;;;;;;;;;;4959899;28;20102;-74
2022/10/10 11:02:05;;;;;;;4.60;4.40;;;;;;;;;;4959143;28;20470;-73
2022/10/10 11:04:55;;;;;;;4.90;4.70;;;;;;;;;;4957500;28;20519;-72
2022/10/10 11:07:25;;;;;;;5.20;5.00;;;;;;;;;;4995642;28;20053;-72
2022/10/10 11:10:16;;;;;;;5.90;5.60;;;;;;;;;;4993077;28;20108;-72
2022/10/10 11:12:54;;;;;;;5.38;5.18;;;;;;;;;;4999550;28;20038;-72
2022/10/10 11:15:28;;;;;;;5.40;5.20;;;;;;;;;;4991049;28;20053;-72
2022/10/10 11:18:34;;;;;;;5.90;5.60;;;;;;;;;;4991038;28;21787;-72
2022/10/10 11:21:09;;;;;;;7.00;6.35;;;;;;;;;;4994009;28;20605;-72
2022/10/10 11:23:42;;;;;;;5.40;5.20;;;;;;;;;;4997412;28;20077;-72
2022/10/10 11:26:22;;;;;;;5.40;5.20;;;;;;;;;;5005665;28;20092;-72
2022/10/10 11:28:56;;;;;;;5.88;5.57;;;;;;;;;;5000288;28;20528;-72
2022/10/10 11:31:49;;;;;;;5.40;5.20;;;;;;;;;;4994643;28;20046;-72
2022/10/10 11:34:28;;;;;;;5.78;5.47;;;;;;;;;;4993116;28;20042;-72
2022/10/10 11:36:57;;;;;;;;;;;;;;;;;;4993293;28;20499;-72
2022/10/10 11:39:33;;;;;;;5.70;5.40;;;;;;;;;;4992456;28;19925;-73
2022/10/10 11:42:25;;;;;;;5.88;5.57;;;;;;;;;;5000207;28;20037;-72
2022/10/10 11:45:23;;;;;;;5.80;5.50;;;;;;;;;;4987962;28;20068;-71
2022/10/10 11:48:03;;;;;;;6.05;5.75;;;;;;;;;;4928851;29;20578;-73
2022/10/10 11:50:34;;;;;;;5.30;5.10;;;;;;;;;;4932735;29;20086;-71
2022/10/10 11:53:25;;;;;;;5.57;5.38;;;;;;;;;;4929846;29;20532;-72
2022/10/10 11:56:06;;;;;;;5.38;5.18;;;;;;;;;;4932157;29;20147;-72
2022/10/10 11:58:53;;;;;;;6.20;5.90;;;;;;;;;;4926895;29;20062;-74
2022/10/10 12:01:32;;;;;;;6.05;5.75;;;;;;;;;;4933352;29;20402;-71
2022/10/10 12:03:58;;;;;;;5.63;5.40;;;;;;;;;;4900243;29;20543;-72
2022/10/10 12:06:31;;;;;;;6.13;5.82;;;;;;;;;;4914215;29;20043;-73
2022/10/10 12:08:59;;;;;;;5.72;5.43;;;;;;;;;;4927004;29;20463;-72
2022/10/10 12:11:34;;;;;;;5.78;5.47;;;;;;;;;;4929298;29;20047;-69
2022/10/10 12:14:01;;;;;;;5.40;5.20;;;;;;;;;;4932169;29;20047;-70
2022/10/10 12:16:30;;;;;;;5.50;5.30;;;;;;;;;;4928334;29;20039;-70
2022/10/10 12:19:02;;;;;;;5.65;5.40;;;;;;;;;;4932695;29;20136;-69
2022/10/10 12:21:29;;;;;;;5.35;5.15;;;;;;;;;;4929517;29;20044;-71
2022/10/10 12:24:03;;;;;;;5.90;5.60;;;;;;;;;;4959337;28;20097;-70
2022/10/10 12:26:58;;;;;;;5.53;5.32;;;;;;;;;;4997430;28;20074;-69
2022/10/10 12:29:39;;;;;;;6.00;5.70;;;;;;;;;;4986108;28;20560;-69
2022/10/10 12:32:39;;;;;;;5.82;5.53;;;;;;;;;;4982242;28;20042;-73
2022/10/10 12:35:28;;;;;;;5.95;5.65;;;;;;;;;;4981225;28;20066;-72
2022/10/10 12:38:15;;;;;;;6.10;5.80;;;;;;;;;;4984542;28;20042;-72
2022/10/10 12:41:04;;;;;;;5.60;5.40;;;;;;;;;;4982754;28;20034;-72
2022/10/10 12:43:42;;;;;;;6.03;5.72;;;;;;;;;;4984083;28;20570;-72
2022/10/10 12:46:17;;;;;;;;;;;;;;;;;;4984778;28;20038;-72
2022/10/10 12:48:43;;;;;;;6.15;5.85;;;;;;;;;;4981877;28;20492;-72
2022/10/10 12:51:21;;;;;;;6.05;5.75;;;;;;;;;;4984685;28;20041;-72
2022/10/10 12:53:53;;;;;;;6.32;6.03;;;;;;;;;;4983904;28;20038;-72
2022/10/10 12:56:39;;;;;;;6.20;5.90;;;;;;;;;;4984015;28;20053;-72
2022/10/10 12:59:16;;;;;;;6.35;6.05;;;;;;;;;;4980397;28;20042;-71
2022/10/10 13:01:48;;;;;;;6.20;5.90;;;;;;;;;;4980897;28;20048;-74
2022/10/10 13:04:16;;;;;;;6.30;6.00;;;;;;;;;;4981903;28;20141;-73
2022/10/10 13:06:44;;;;;;;6.40;6.10;;;;;;;;;;4981255;28;20046;-73
2022/10/10 13:09:19;;;;;;;6.50;6.20;;;;;;;;;;4985542;28;20132;-71
2022/10/10 13:12:03;;;;;;;6.50;6.20;;;;;;;;;;5000692;28;20033;-72
2022/10/10 13:14:39;;;;;;;6.60;6.30;;;;;;;;;;5006398;28;20041;-73
2022/10/10 13:17:20;;;;;;;6.57;6.28;;;;;;;;;;4994231;28;20027;-72
2022/10/10 13:19:46;;;;;;;6.15;5.85;;;;;;;;;;4994124;28;20493;-72
2022/10/10 13:22:11;;;;;;;6.45;6.15;;;;;;;;;;5000904;28;20073;-71
2022/10/10 13:24:39;;;;;;;6.55;6.25;;;;;;;;;;4995672;28;20421;-73
2022/10/10 13:27:05;;;;;;;6.45;6.15;;;;;;;;;;4996683;28;20285;-72
2022/10/10 13:29:34;;;;;;;6.40;6.10;;;;;;;;;;4997357;28;20504;-72
2022/10/10 13:32:07;;;;;;;6.63;6.30;;;;;;;;;;4995183;28;20033;-72
2022/10/10 13:34:36;;;;;;;6.60;6.30;;;;;;;;;;4996318;28;20072;-72
2022/10/10 13:37:04;;;;;;;6.10;5.80;;;;;;;;;;5002933;28;20556;-71
2022/10/10 13:39:34;;;;;;;6.30;6.00;;;;;;;;;;4993534;28;20038;-73
2022/10/10 13:42:00;;;;;;;6.70;6.40;;;;;;;;;;4993258;28;20520;-72
2022/10/10 13:44:46;;;;;;;6.50;6.20;;;;;;;;;;4993701;28;20053;-72
2022/10/10 13:48:00;;;;;;;6.45;6.15;;;;;;;;;;4993028;28;20083;-72
2022/10/10 13:50:27;;;;;;;6.15;5.85;;;;;;;;;;4998191;28;20058;-72
2022/10/10 13:53:23;;;;;;;6.28;5.97;;;;;;;;;;5000201;28;20042;-71
2022/10/10 13:55:50;;;;;;;6.13;5.82;;;;;;;;;;5003378;28;20045;-71
2022/10/10 13:58:16;;;;;;;6.20;5.90;;;;;;;;;;4997221;28;20099;-71
2022/10/10 14:00:42;;;;;;;6.00;5.70;;;;;;;;;;4995932;28;20033;-72
2022/10/10 14:03:15;;;;;;;6.07;5.78;;;;;;;;;;4995796;28;20036;-71
2022/10/10 14:05:43;;;;;;;6.05;5.75;;;;;;;;;;4994322;28;20034;-71
2022/10/10 14:08:16;;;;;;;6.10;5.80;;;;;;;;;;5006488;28;20456;-72
2022/10/10 14:10:53;;;;;;;6.40;6.10;;;;;;;;;;4999870;28;20522;-72
2022/10/10 14:13:19;;;;;;;6.07;5.78;;;;;;;;;;4998657;28;20030;-71
2022/10/10 14:15:45;;;;;;;6.00;5.70;;;;;;;;;;5001859;28;20045;-71
2022/10/10 14:18:24;;;;;;;5.80;5.50;;;;;;;;;;4996567;28;20025;-70
2022/10/10 14:20:50;;;;;;;;;;;;;;;;;;4998449;28;20469;-71
2022/10/10 14:23:16;;;;;;;5.90;5.60;;;;;;;;;;4995243;28;19957;-71
2022/10/10 14:25:45;;;;;;;6.13;5.82;;;;;;;;;;5000183;28;20042;-71
2022/10/10 14:28:24;;;;;;;6.30;6.00;;;;;;;;;;4992177;28;20037;-70
2022/10/10 14:30:50;;;;;;;6.18;5.88;;;;;;;;;;4998271;28;20087;-71
2022/10/10 14:33:17;;;;;;;6.00;5.70;;;;;;;;;;4997640;28;20313;-71
2022/10/10 14:35:44;;;;;;;6.03;5.72;;;;;;;;;;4993034;28;20333;-71
2022/10/10 14:38:11;;;;;;;5.80;5.50;;;;;;;;;;4999070;28;20347;-71
2022/10/10 14:40:37;;;;;;;6.00;5.70;;;;;;;;;;4994568;28;20034;-71
2022/10/10 14:43:02;;;;;;;5.85;5.55;;;;;;;;;;4993752;28;20057;-71
2022/10/10 14:45:28;;;;;;;5.97;5.68;;;;;;;;;;5000974;28;20037;-71
2022/10/10 14:47:54;;;;;;;5.95;5.65;;;;;;;;;;4995921;28;20038;-72
2022/10/10 14:50:27;;;;;;;6.00;5.70;;;;;;;;;;4993592;28;20050;-71
2022/10/10 14:52:52;;;;;;;5.82;5.53;;;;;;;;;;4996911;28;20034;-71
2022/10/10 14:55:18;;;;;;;6.15;5.85;;;;;;;;;;5005867;28;20516;-71
2022/10/10 14:57:43;;;;;;;6.00;5.70;;;;;;;;;;4998422;28;20078;-70
2022/10/10 15:00:15;;;;;;;6.32;6.03;;;;;;;;;;4998803;28;20619;-71
2022/10/10 15:02:40;;;;;;;6.20;5.90;;;;;;;;;;5001041;28;20030;-70
2022/10/10 15:05:06;;;;;;;5.82;5.53;;;;;;;;;;4997272;28;20040;-70
2022/10/10 15:07:32;;;;;;;6.07;5.78;;;;;;;;;;5000135;28;20039;-71